Chester, Virginia
Current Conditions -  °F | °C
As of 6:29 PM on Monday 22 Dec 2014 (Local Time) from KFCI Reporting Station
Overcast Overcast  
Wind Chill: 29°   Ceiling: 400
Heat Index: 36°   Visibility: 2.5mi
Dew Point: 25°   Wind: 8mph
Humidity: 65%   Direction: 10°N
Pressure: 30.11"   Gusts: NA
Location:  37.36°N, 77.44°W
Report Text: KFCI 222329Z AUTO 01007KT 2 1/2SM OVC004 02/M04 A3011 RMK AO1 P0001
Loading
Personal Weather Stations






























Interactive Weather Map New forecast layout! Learn more

10-Day Weather Forecast

Advertisements
Track Severe Weather on mobile